Lyndhurst, New Jersey
Current Conditions -  °F | °C
As of 12:51 PM on Sunday 21 Dec 2014 (Local Time) from KTEB Reporting Station
Overcast Overcast  
Wind Chill: 29°   Ceiling: 1800
Heat Index: 34°   Visibility: 10mi
Dew Point: 27°   Wind: 6mph
Humidity: 75%   Direction: 350°N
Pressure: 30.29"   Gusts: NA
Location:  40.81°N, 74.12°W
Report Text: KTEB 211751Z 35005KT 10SM OVC018 01/M03 A3029 RMK AO2 SLP256 T00111028 10011 21006 58011
Loading
Personal Weather Stations






























Interactive Weather Map New forecast layout! Learn more

10-Day Weather Forecast

Advertisements
Track Severe Weather on mobile